createdAt,value
2023-01-19T00:02:08.016Z,98097.56
2023-01-19T00:05:09.968Z,98135.81
2023-01-19T00:08:15.052Z,98124.84
2023-01-19T00:11:19.625Z,98103.03
2023-01-19T00:14:21.245Z,98126.41
2023-01-19T00:17:22.873Z,98118.81
2023-01-19T00:20:24.551Z,98126.91
2023-01-19T00:23:26.233Z,98125.53
2023-01-19T00:26:27.841Z,98133.94
2023-01-19T00:29:34.350Z,98127.38
2023-01-19T00:32:36.006Z,98138.34
2023-01-19T00:35:37.878Z,98142.84
2023-01-19T00:38:39.531Z,98137.09
2023-01-19T00:41:59.969Z,98142.56
2023-01-19T00:45:01.604Z,98148.38
2023-01-19T00:48:03.450Z,98149.44
2023-01-19T00:51:05.348Z,98150.78
2023-01-19T00:54:10.286Z,98162.78
2023-01-19T00:57:12.316Z,98154.63
2023-01-19T01:00:16.769Z,98159.31
2023-01-19T01:03:18.549Z,98162.56
2023-01-19T01:06:21.017Z,98173.91
2023-01-19T01:09:23.593Z,98170.63
2023-01-19T01:12:25.405Z,98163.44
2023-01-19T01:15:28.344Z,98150.16
2023-01-19T01:18:30.085Z,98174.03
2023-01-19T01:21:32.064Z,98167.72
2023-01-19T01:24:33.671Z,98162.66
2023-01-19T01:27:35.277Z,98148.41
2023-01-19T01:30:40.994Z,98166.88
2023-01-19T01:33:42.602Z,98173.28
2023-01-19T01:36:44.328Z,98170.19
2023-01-19T01:39:45.990Z,98174.63
2023-01-19T01:42:47.582Z,98165.72
2023-01-19T01:45:49.397Z,98171.63
2023-01-19T01:48:54.938Z,98170.53
2023-01-19T01:51:56.660Z,98167.06
2023-01-19T01:54:59.026Z,98171.97
2023-01-19T01:58:05.018Z,98168.25
2023-01-19T02:01:29.311Z,98166.13
2023-01-19T02:04:31.987Z,98163.06
2023-01-19T02:08:09.392Z,98167.41
2023-01-19T02:11:30.176Z,98167.22
2023-01-19T02:14:32.005Z,98173.03
2023-01-19T02:17:33.692Z,98166.41
2023-01-19T02:20:38.204Z,98137.88
2023-01-19T02:23:52.841Z,98159.84
2023-01-19T02:26:56.207Z,98154.09
2023-01-19T02:29:59.098Z,98153.81
2023-01-19T02:33:01.356Z,98162.59
2023-01-19T02:36:05.908Z,98166.06
2023-01-19T02:39:09.719Z,98166.88
2023-01-19T02:42:23.085Z,98162.88
2023-01-19T02:45:24.860Z,98175.38
2023-01-19T02:48:26.779Z,98166.94
2023-01-19T02:51:29.149Z,98155.06
2023-01-19T02:54:49.304Z,98127.38
2023-01-19T02:58:12.181Z,98154.81
2023-01-19T03:01:29.279Z,98154.81
2023-01-19T03:04:49.479Z,98177.56
2023-01-19T03:08:15.816Z,98171.72
2023-01-19T03:11:17.740Z,98168.81
2023-01-19T03:14:25.151Z,98170.19
2023-01-19T03:17:31.070Z,98165.69
2023-01-19T03:20:32.726Z,98173.63
2023-01-19T03:23:38.642Z,98170.19
2023-01-19T03:26:45.997Z,98176.03
2023-01-19T03:29:52.667Z,98152.41
2023-01-19T03:33:08.340Z,98173.91
2023-01-19T03:36:21.731Z,98171.19
2023-01-19T03:39:26.610Z,98164.56
2023-01-19T03:42:29.199Z,98173.28
2023-01-19T03:45:33.516Z,98182.25
2023-01-19T03:48:37.328Z,98182.84
2023-01-19T03:51:39.827Z,98179.75
2023-01-19T03:54:41.805Z,98182.41
2023-01-19T03:57:43.740Z,98177.19
2023-01-19T04:00:45.525Z,98170.59
2023-01-19T04:03:47.289Z,98179.28
2023-01-19T04:06:49.023Z,98186.72
2023-01-19T04:09:50.692Z,98189.63
2023-01-19T04:12:58.698Z,98191.22
2023-01-19T04:16:02.125Z,98200.25
2023-01-19T04:19:03.836Z,98195.22
2023-01-19T04:22:05.519Z,98184.88
2023-01-19T04:25:08.638Z,98193.91
2023-01-19T04:28:10.259Z,98195.22
2023-01-19T04:31:12.535Z,98199.16
2023-01-19T04:34:14.203Z,98209.47
2023-01-19T04:37:15.798Z,98216.81
2023-01-19T04:40:17.600Z,98194.44
2023-01-19T04:43:23.365Z,98203.50
2023-01-19T04:46:25.297Z,98211.22
2023-01-19T04:49:27.042Z,98214.63
2023-01-19T04:52:35.988Z,98217.03
2023-01-19T04:55:38.810Z,98222.84
2023-01-19T04:58:40.508Z,98229.72
2023-01-19T05:01:42.271Z,98218.03
2023-01-19T05:04:43.896Z,98230.97
2023-01-19T05:07:45.622Z,98232.31
2023-01-19T05:10:48.144Z,98233.13
2023-01-19T05:13:50.980Z,98231.03
2023-01-19T05:16:53.190Z,98227.13
2023-01-19T05:19:54.978Z,98233.19
2023-01-19T05:22:56.558Z,98214.75
2023-01-19T05:26:00.882Z,98228.69
2023-01-19T05:29:02.547Z,98247.53
2023-01-19T05:32:04.602Z,98235.63
2023-01-19T05:35:07.195Z,98233.81
2023-01-19T05:38:09.250Z,98240.94
2023-01-19T05:41:10.960Z,98244.13
2023-01-19T05:44:13.180Z,98244.94
2023-01-19T05:47:14.850Z,98247.81
2023-01-19T05:50:16.733Z,98248.88
2023-01-19T05:53:18.401Z,98241.47
2023-01-19T05:56:20.268Z,98253.66
2023-01-19T05:59:24.215Z,98248.34
2023-01-19T06:02:28.800Z,98258.34
2023-01-19T06:05:30.726Z,98258.34
2023-01-19T06:08:32.587Z,98264.19
2023-01-19T06:11:34.259Z,98259.66
2023-01-19T06:14:38.033Z,98260.41
2023-01-19T06:17:39.739Z,98264.91
2023-01-19T06:20:41.544Z,98244.84
2023-01-19T06:23:43.270Z,98258.28
2023-01-19T06:26:45.146Z,98250.09
2023-01-19T06:29:46.975Z,98265.16
2023-01-19T06:32:48.740Z,98269.97
2023-01-19T06:35:51.873Z,98265.97
2023-01-19T06:38:53.617Z,98270.72
2023-01-19T06:41:55.403Z,98249.81
2023-01-19T06:44:57.072Z,98266.25
2023-01-19T06:47:58.959Z,98263.59
2023-01-19T06:51:00.611Z,98260.66
2023-01-19T06:54:02.580Z,98264.34
2023-01-19T06:57:04.475Z,98263.25
2023-01-19T07:00:09.071Z,98254.53
2023-01-19T07:03:19.764Z,98267.75
2023-01-19T07:06:21.469Z,98265.38
2023-01-19T07:09:24.953Z,98268.28
2023-01-19T07:12:26.542Z,98273.56
2023-01-19T07:15:28.288Z,98272.78
2023-01-19T07:18:29.903Z,98275.69
2023-01-19T07:21:31.910Z,98267.72
2023-01-19T07:24:34.997Z,98280.41
2023-01-19T07:27:36.583Z,98284.13
2023-01-19T07:30:38.308Z,98287.31
2023-01-19T07:33:40.007Z,98292.34
2023-01-19T07:36:41.656Z,98283.63
2023-01-19T07:39:43.286Z,98283.59
2023-01-19T07:42:49.209Z,98286.22
2023-01-19T07:45:50.846Z,98294.69
2023-01-19T07:48:52.432Z,98288.09
2023-01-19T07:51:56.332Z,98298.94
2023-01-19T07:54:59.287Z,98292.31
2023-01-19T07:58:00.989Z,98297.66
2023-01-19T08:01:10.679Z,98310.31
2023-01-19T08:04:12.360Z,98319.03
2023-01-19T08:07:14.104Z,98318.25
2023-01-19T08:10:16.782Z,98328.59
2023-01-19T08:13:18.898Z,98321.13
2023-01-19T08:16:20.491Z,98331.13
2023-01-19T08:19:22.195Z,98328.81
2023-01-19T08:22:23.743Z,98330.66
2023-01-19T08:25:46.047Z,98324.59
2023-01-19T08:28:47.674Z,98338.88
2023-01-19T08:31:49.376Z,98323.78
2023-01-19T08:34:51.039Z,98338.59
2023-01-19T08:37:52.691Z,98358.69
2023-01-19T08:40:54.330Z,98360.78
2023-01-19T08:43:56.001Z,98354.44
2023-01-19T08:46:57.590Z,98351.47
2023-01-19T08:49:59.195Z,98366.84
2023-01-19T08:53:02.911Z,98363.91
2023-01-19T08:56:05.937Z,98353.84
2023-01-19T08:59:10.855Z,98368.13
2023-01-19T09:02:13.891Z,98355.44
2023-01-19T09:05:15.770Z,98371.31
2023-01-19T09:08:17.712Z,98362.56
2023-01-19T09:11:19.902Z,98369.13
2023-01-19T09:14:21.818Z,98370.19
2023-01-19T09:17:23.982Z,98370.19
2023-01-19T09:20:25.738Z,98356.69
2023-01-19T09:23:27.789Z,98364.03
2023-01-19T09:26:30.253Z,98369.34
2023-01-19T09:29:32.795Z,98384.47
2023-01-19T09:32:34.791Z,98373.28
2023-01-19T09:35:37.667Z,98372.75
2023-01-19T09:38:39.395Z,98368.22
2023-01-19T09:41:47.308Z,98367.94
2023-01-19T09:44:50.911Z,98362.84
2023-01-19T09:47:54.571Z,98357.34
2023-01-19T09:51:01.999Z,98370.56
2023-01-19T09:54:14.149Z,98373.91
2023-01-19T09:57:16.008Z,98346.22
2023-01-19T10:00:18.742Z,98359.09
2023-01-19T10:03:21.135Z,98346.66
2023-01-19T10:06:23.256Z,98361.19
2023-01-19T10:09:47.637Z,98351.16
2023-01-19T10:12:55.121Z,98372.00
2023-01-19T10:16:33.893Z,98365.69
2023-01-19T10:19:40.267Z,98354.97
2023-01-19T10:22:43.381Z,98371.63
2023-01-19T10:25:46.224Z,98363.34
2023-01-19T10:28:50.914Z,98366.47
2023-01-19T10:32:04.235Z,98359.50
2023-01-19T10:35:21.992Z,98372.97
2023-01-19T10:38:24.614Z,98354.19
2023-01-19T10:41:32.035Z,98368.25
2023-01-19T10:44:37.802Z,98377.97
2023-01-19T10:47:40.030Z,98360.88
2023-01-19T10:50:42.168Z,98377.69
2023-01-19T10:53:58.904Z,98376.09
2023-01-19T10:57:10.291Z,98375.41
2023-01-19T11:00:37.838Z,98369.72
2023-01-19T11:03:39.676Z,98364.06
2023-01-19T11:06:41.259Z,98360.78
2023-01-19T11:09:42.861Z,98363.53
2023-01-19T11:12:53.879Z,98349.44
2023-01-19T11:16:04.292Z,98357.03
2023-01-19T11:19:15.484Z,98358.63
2023-01-19T11:22:27.880Z,98352.78
2023-01-19T11:25:32.041Z,98364.47
2023-01-19T11:28:37.721Z,98352.59
2023-01-19T11:31:39.683Z,98334.81
2023-01-19T11:34:41.455Z,98355.91
2023-01-19T11:37:43.247Z,98363.84
2023-01-19T11:40:56.638Z,98359.34
2023-01-19T11:44:30.000Z,98359.72
2023-01-19T11:47:54.714Z,98362.31
2023-01-19T11:51:00.471Z,98340.50
2023-01-19T11:54:08.439Z,98345.91
2023-01-19T11:57:17.173Z,98341.22
2023-01-19T12:00:43.625Z,98347.56
2023-01-19T12:03:59.222Z,98342.38
2023-01-19T12:07:08.943Z,98335.69
2023-01-19T12:10:27.173Z,98338.63
2023-01-19T12:13:30.671Z,98342.38
2023-01-19T12:16:34.776Z,98343.47
2023-01-19T12:19:54.896Z,98343.22
2023-01-19T12:23:32.108Z,98333.69
2023-01-19T12:26:55.875Z,98332.16
2023-01-19T12:29:57.906Z,98331.16
2023-01-19T12:33:20.590Z,98322.22
2023-01-19T12:36:35.587Z,98340.94
2023-01-19T12:39:48.843Z,98331.50
2023-01-19T12:42:59.519Z,98322.81
2023-01-19T12:46:02.094Z,98312.25
2023-01-19T12:49:12.386Z,98325.19
2023-01-19T12:52:41.561Z,98312.53
2023-01-19T12:55:46.823Z,98318.00
2023-01-19T12:58:49.978Z,98315.84
2023-01-19T13:02:28.693Z,98326.56
2023-01-19T13:05:39.451Z,98327.50
2023-01-19T13:09:00.751Z,98319.38
2023-01-19T13:12:14.668Z,98318.66
2023-01-19T13:15:35.352Z,98314.75
2023-01-19T13:18:41.617Z,98293.94
2023-01-19T13:21:48.640Z,98316.28
2023-01-19T13:25:14.088Z,98323.50
2023-01-19T13:28:18.399Z,98318.41
2023-01-19T13:31:20.907Z,98320.09
2023-01-19T13:34:25.987Z,98319.94
2023-01-19T13:37:35.128Z,98320.94
2023-01-19T13:40:39.005Z,98324.31
2023-01-19T13:43:42.817Z,98316.41
2023-01-19T13:46:46.797Z,98314.09
2023-01-19T13:49:53.171Z,98313.31
2023-01-19T13:52:56.652Z,98324.75
2023-01-19T13:56:18.249Z,98317.63
2023-01-19T13:59:20.051Z,98319.28
2023-01-19T14:02:21.945Z,98327.50
2023-01-19T14:05:30.044Z,98324.03
2023-01-19T14:08:32.864Z,98328.06
2023-01-19T14:11:35.073Z,98339.19
2023-01-19T14:14:36.771Z,98322.00
2023-01-19T14:17:38.675Z,98322.78
2023-01-19T14:20:41.303Z,98335.00
2023-01-19T14:23:52.052Z,98343.56
2023-01-19T14:26:54.843Z,98335.09
2023-01-19T14:30:20.639Z,98335.38
2023-01-19T14:33:48.011Z,98339.47
2023-01-19T14:36:51.620Z,98337.59
2023-01-19T14:40:08.218Z,98335.00
2023-01-19T14:43:13.354Z,98326.56
2023-01-19T14:46:19.228Z,98328.09
2023-01-19T14:49:34.197Z,98336.53
2023-01-19T14:52:42.310Z,98333.84
2023-01-19T14:55:52.252Z,98343.41
2023-01-19T14:58:55.805Z,98345.03
2023-01-19T15:01:57.688Z,98345.63
2023-01-19T15:04:59.433Z,98336.88
2023-01-19T15:08:03.109Z,98347.81
2023-01-19T15:11:21.986Z,98338.06
2023-01-19T15:14:23.789Z,98332.31
2023-01-19T15:17:25.725Z,98325.16
2023-01-19T15:20:27.395Z,98329.94
2023-01-19T15:23:30.753Z,98334.44
2023-01-19T15:26:32.396Z,98339.72
2023-01-19T15:29:34.221Z,98336.88
2023-01-19T15:32:35.852Z,98347.47
2023-01-19T15:35:37.505Z,98329.47
2023-01-19T15:38:39.547Z,98338.47
2023-01-19T15:41:41.305Z,98351.28
2023-01-19T15:44:42.997Z,98345.44
2023-01-19T15:47:44.705Z,98329.59
2023-01-19T15:50:46.712Z,98328.31
2023-01-19T15:53:49.722Z,98325.94
2023-01-19T15:56:52.711Z,98348.13
2023-01-19T15:59:54.488Z,98319.00
2023-01-19T16:02:56.158Z,98337.56
2023-01-19T16:06:01.611Z,98339.44
2023-01-19T16:09:04.003Z,98298.03
2023-01-19T16:12:06.063Z,98345.00
2023-01-19T16:15:08.364Z,98341.53
2023-01-19T16:18:10.385Z,98334.41
2023-01-19T16:21:12.053Z,98339.72
2023-01-19T16:24:13.707Z,98333.06
2023-01-19T16:27:15.355Z,98342.38
2023-01-19T16:30:19.391Z,98338.69
2023-01-19T16:33:21.109Z,98328.13
2023-01-19T16:36:28.887Z,98346.91
2023-01-19T16:39:30.641Z,98353.53
2023-01-19T16:42:32.459Z,98332.38
2023-01-19T16:45:34.141Z,98341.25
2023-01-19T16:48:36.053Z,98341.25
2023-01-19T16:51:37.911Z,98347.13
2023-01-19T16:54:42.487Z,98343.97
2023-01-19T16:57:44.254Z,98348.22
2023-01-19T17:00:45.906Z,98336.50
2023-01-19T17:03:48.275Z,98331.00
2023-01-19T17:06:50.210Z,98336.84
2023-01-19T17:09:52.251Z,98333.38
2023-01-19T17:12:53.817Z,98323.38
2023-01-19T17:16:02.611Z,98327.25
2023-01-19T17:19:06.133Z,98332.53
2023-01-19T17:22:07.920Z,98315.44
2023-01-19T17:25:09.632Z,98314.59
2023-01-19T17:28:11.275Z,98324.41
2023-01-19T17:31:20.281Z,98337.06
2023-01-19T17:34:22.070Z,98336.78
2023-01-19T17:37:23.702Z,98313.81
2023-01-19T17:40:26.182Z,98313.03
2023-01-19T17:43:28.002Z,98330.03
2023-01-19T17:46:30.622Z,98342.53
2023-01-19T17:49:32.499Z,98327.06
2023-01-19T17:52:34.235Z,98319.63
2023-01-19T17:55:35.977Z,98314.31
2023-01-19T17:58:38.557Z,98342.66
2023-01-19T18:01:41.387Z,98323.94
2023-01-19T18:04:43.177Z,98334.50
2023-01-19T18:07:45.147Z,98338.56
2023-01-19T18:10:57.893Z,98342.75
2023-01-19T18:14:00.816Z,98323.53
2023-01-19T18:17:02.537Z,98337.22
2023-01-19T18:20:04.658Z,98319.75
2023-01-19T18:23:07.163Z,98332.19
2023-01-19T18:26:15.406Z,98337.56
2023-01-19T18:29:19.261Z,98328.00
2023-01-19T18:32:21.802Z,98328.03
2023-01-19T18:35:23.443Z,98330.41
2023-01-19T18:38:25.419Z,98327.25
2023-01-19T18:41:29.717Z,98317.19
2023-01-19T18:44:31.513Z,98302.75
2023-01-19T18:47:36.228Z,98321.50
2023-01-19T18:50:37.897Z,98328.28
2023-01-19T18:53:39.778Z,98327.75
2023-01-19T18:56:41.353Z,98311.44
2023-01-19T18:59:43.961Z,98336.28
2023-01-19T19:03:48.363Z,98343.69
2023-01-19T19:24:11.566Z,98328.38
2023-01-19T19:27:14.476Z,98338.34
2023-01-19T19:30:16.636Z,98332.78
2023-01-19T19:33:18.217Z,98345.81
2023-01-19T19:36:21.441Z,98332.06
2023-01-19T19:39:23.181Z,98334.25
2023-01-19T19:42:25.007Z,98350.91
2023-01-19T19:45:26.986Z,98326.28
2023-01-19T19:48:28.984Z,98355.66
2023-01-19T19:51:30.652Z,98348.47
2023-01-19T19:54:32.386Z,98356.69
2023-01-19T19:57:34.125Z,98346.91
2023-01-19T20:00:35.790Z,98338.28
2023-01-19T20:03:37.841Z,98346.47
2023-01-19T20:06:44.586Z,98354.44
2023-01-19T20:09:46.236Z,98354.50
2023-01-19T20:12:47.865Z,98353.75
2023-01-19T20:15:49.594Z,98345.84
2023-01-19T20:18:54.242Z,98354.81
2023-01-19T20:21:56.048Z,98351.97
2023-01-19T20:24:57.795Z,98354.06
2023-01-19T20:27:59.544Z,98348.81
2023-01-19T20:31:11.796Z,98362.28
2023-01-19T20:34:15.806Z,98368.09
2023-01-19T20:37:17.596Z,98357.28
2023-01-19T20:40:19.513Z,98350.69
2023-01-19T20:43:21.160Z,98347.53
2023-01-19T20:46:22.876Z,98351.50
2023-01-19T20:49:25.054Z,98347.81
2023-01-19T20:52:26.832Z,98354.50
2023-01-19T20:55:28.563Z,98367.41
2023-01-19T20:58:31.313Z,98365.88
2023-01-19T21:01:33.192Z,98369.06
2023-01-19T21:04:34.902Z,98388.06
2023-01-19T21:07:36.891Z,98370.88
2023-01-19T21:10:38.570Z,98354.16
2023-01-19T21:13:40.511Z,98377.22
2023-01-19T21:16:42.667Z,98375.91
2023-01-19T21:19:44.425Z,98389.69
2023-01-19T21:22:46.238Z,98387.59
2023-01-19T21:25:55.642Z,98394.47
2023-01-19T21:28:58.437Z,98404.28
2023-01-19T21:32:01.124Z,98401.69
2023-01-19T21:35:02.870Z,98409.09
2023-01-19T21:38:04.552Z,98398.28
2023-01-19T21:41:12.690Z,98409.59
2023-01-19T21:44:14.748Z,98408.56
2023-01-19T21:47:16.533Z,98396.66
2023-01-19T21:50:19.600Z,98404.59
2023-01-19T21:53:21.233Z,98413.09
2023-01-19T21:56:23.135Z,98399.59
2023-01-19T21:59:24.950Z,98403.31
2023-01-19T22:02:37.909Z,98393.03
2023-01-19T22:05:40.141Z,98415.53
2023-01-19T22:08:41.963Z,98434.56
2023-01-19T22:11:43.688Z,98415.53
2023-01-19T22:14:45.398Z,98428.75
2023-01-19T22:17:47.335Z,98422.66
2023-01-19T22:20:48.952Z,98425.38
2023-01-19T22:23:53.111Z,98429.81
2023-01-19T22:26:54.894Z,98441.25
2023-01-19T22:29:56.651Z,98429.09
2023-01-19T22:32:58.344Z,98428.84
2023-01-19T22:36:21.430Z,98449.47
2023-01-19T22:39:23.074Z,98441.53
2023-01-19T22:42:24.685Z,98444.97
2023-01-19T22:45:26.453Z,98440.75
2023-01-19T22:48:28.100Z,98445.25
2023-01-19T22:51:30.945Z,98442.63
2023-01-19T22:59:36.881Z,98440.00
2023-01-19T23:02:38.448Z,98442.63
2023-01-19T23:05:40.148Z,98447.09
2023-01-19T23:08:42.474Z,98458.25
2023-01-19T23:11:51.258Z,98447.41
2023-01-19T23:14:53.229Z,98451.88
2023-01-19T23:17:54.806Z,98451.13
2023-01-19T23:21:01.477Z,98469.41
2023-01-19T23:24:05.104Z,98469.97
2023-01-19T23:27:06.796Z,98466.25
2023-01-19T23:30:09.095Z,98471.81
2023-01-19T23:33:10.740Z,98461.78
2023-01-19T23:36:13.432Z,98467.59
2023-01-19T23:39:17.806Z,98468.91
2023-01-19T23:42:19.428Z,98457.53
2023-01-19T23:45:21.181Z,98462.56
2023-01-19T23:48:22.809Z,98480.59
2023-01-19T23:51:28.036Z,98482.97
2023-01-19T23:54:29.673Z,98480.09
2023-01-19T23:57:31.245Z,98476.72
